Etusivu
METAR-TAF:

METAR-TAF

Lentoasemat :

Sotilaslentoasema

Ismaïlia, Egypti

Leveyspiiri: 30-35-54N, Pituuspiiri: 032-14-13E, korkeus merenpinnasta: 13 m

Tämänhetkinen sää

Tämä raportti tehtiin 6 tuntia ja 25 minuuttia sitten, kello 16.00 UTC
Tuuli 10 kn pohjoisen/luoteesta
Lämpötila 21°C
Kosteus 38%
Ilmanpaine 1014 hPa
Näkyvyys 10 km tai enemmän
ei pilviä alle 1500 m:ssä eikä cumulonimbus-pilviä

METAR: HEIS 281600Z 33010KT CAVOK 21/06 Q1014

Aika: 00:25 (22:25 UTC)


TAF: puuttuu

Säähavainnot ja -ennusteet yli 4000 lentoasemalta (METAR- ja TAF-raportit).

Käytössä olevat sääasemat on merkitty karttaan keltaisilla ja punaisilla pisteillä.

Aseta hiiri pisteen päälle nähdäksesi sääaseman nimen.

Klikkaa sitten nähdäksesi säähavainnot ja -ennusteet.

Kartan vaihtaminen: klikkaa mustalla rastilla varustettuja vihreitä pisteitä, niin voit zoomata sisään; viivalla varustettua vihreää pistettä, niin voit zoomata ulos tai vihreitä nuolia, niin pääset viereisille kartoille.


METAR-TAF: